sensor_id;sensor_type;location;lat;lon;timestamp;temperature;humidity
8338;DHT22;4206;48.634;9.516;2023-03-09T00:01:23;10.60;99.90
8338;DHT22;4206;48.634;9.516;2023-03-09T00:03:50;10.60;99.90
8338;DHT22;4206;48.634;9.516;2023-03-09T00:06:18;10.60;99.90
8338;DHT22;4206;48.634;9.516;2023-03-09T00:08:45;10.60;99.90
8338;DHT22;4206;48.634;9.516;2023-03-09T00:11:31;10.80;99.90
8338;DHT22;4206;48.634;9.516;2023-03-09T00:13:58;11.00;99.90
8338;DHT22;4206;48.634;9.516;2023-03-09T00:16:28;11.20;99.90
8338;DHT22;4206;48.634;9.516;2023-03-09T00:18:56;11.50;99.90
8338;DHT22;4206;48.634;9.516;2023-03-09T00:21:27;11.70;99.90
8338;DHT22;4206;48.634;9.516;2023-03-09T00:24:04;11.60;99.90
8338;DHT22;4206;48.634;9.516;2023-03-09T00:26:32;11.60;99.90
8338;DHT22;4206;48.634;9.516;2023-03-09T00:29:00;11.70;99.90
8338;DHT22;4206;48.634;9.516;2023-03-09T00:31:27;11.80;99.90
8338;DHT22;4206;48.634;9.516;2023-03-09T00:33:54;12.00;99.90
8338;DHT22;4206;48.634;9.516;2023-03-09T00:36:21;11.90;99.90
8338;DHT22;4206;48.634;9.516;2023-03-09T00:38:53;11.80;99.90
8338;DHT22;4206;48.634;9.516;2023-03-09T00:41:23;11.70;99.90
8338;DHT22;4206;48.634;9.516;2023-03-09T00:43:50;11.50;99.90
8338;DHT22;4206;48.634;9.516;2023-03-09T00:46:17;11.40;99.90
8338;DHT22;4206;48.634;9.516;2023-03-09T00:48:45;11.20;99.90
8338;DHT22;4206;48.634;9.516;2023-03-09T00:51:12;11.10;99.90
8338;DHT22;4206;48.634;9.516;2023-03-09T00:53:40;10.90;99.90
8338;DHT22;4206;48.634;9.516;2023-03-09T00:56:15;10.70;99.90
8338;DHT22;4206;48.634;9.516;2023-03-09T00:58:42;10.50;99.90
8338;DHT22;4206;48.634;9.516;2023-03-09T01:01:12;10.30;99.90
8338;DHT22;4206;48.634;9.516;2023-03-09T01:03:39;10.20;99.90
8338;DHT22;4206;48.634;9.516;2023-03-09T01:06:06;10.10;99.90
8338;DHT22;4206;48.634;9.516;2023-03-09T01:08:34;10.00;99.90
8338;DHT22;4206;48.634;9.516;2023-03-09T01:11:05;9.90;99.90
8338;DHT22;4206;48.634;9.516;2023-03-09T01:13:32;9.80;99.90
8338;DHT22;4206;48.634;9.516;2023-03-09T01:15:59;9.80;99.90
8338;DHT22;4206;48.634;9.516;2023-03-09T01:18:26;9.80;99.90
8338;DHT22;4206;48.634;9.516;2023-03-09T01:20:53;9.70;99.90
8338;DHT22;4206;48.634;9.516;2023-03-09T01:23:20;9.70;99.90
8338;DHT22;4206;48.634;9.516;2023-03-09T01:25:47;9.70;99.90
8338;DHT22;4206;48.634;9.516;2023-03-09T01:28:14;9.70;99.90
8338;DHT22;4206;48.634;9.516;2023-03-09T01:30:40;9.60;99.90
8338;DHT22;4206;48.634;9.516;2023-03-09T01:33:07;9.70;99.90
8338;DHT22;4206;48.634;9.516;2023-03-09T01:35:34;9.60;99.90
8338;DHT22;4206;48.634;9.516;2023-03-09T01:38:04;9.60;99.90
8338;DHT22;4206;48.634;9.516;2023-03-09T01:40:30;9.50;99.90
8338;DHT22;4206;48.634;9.516;2023-03-09T01:43:00;9.40;99.90
8338;DHT22;4206;48.634;9.516;2023-03-09T01:47:57;9.20;99.90
8338;DHT22;4206;48.634;9.516;2023-03-09T01:50:30;9.10;99.90
8338;DHT22;4206;48.634;9.516;2023-03-09T01:53:02;9.10;99.90
8338;DHT22;4206;48.634;9.516;2023-03-09T01:55:34;9.00;99.90
8338;DHT22;4206;48.634;9.516;2023-03-09T01:58:06;8.90;99.90
8338;DHT22;4206;48.634;9.516;2023-03-09T02:00:35;8.90;99.90
8338;DHT22;4206;48.634;9.516;2023-03-09T02:03:25;8.80;99.90
8338;DHT22;4206;48.634;9.516;2023-03-09T02:08:25;8.80;99.90
8338;DHT22;4206;48.634;9.516;2023-03-09T02:10:58;8.70;99.90
8338;DHT22;4206;48.634;9.516;2023-03-09T02:13:29;8.70;99.90
8338;DHT22;4206;48.634;9.516;2023-03-09T02:15:56;8.70;99.90
8338;DHT22;4206;48.634;9.516;2023-03-09T02:18:24;8.70;99.90
8338;DHT22;4206;48.634;9.516;2023-03-09T02:21:08;8.60;99.90
8338;DHT22;4206;48.634;9.516;2023-03-09T02:26:28;8.50;99.90
8338;DHT22;4206;48.634;9.516;2023-03-09T02:28:57;8.40;99.90
8338;DHT22;4206;48.634;9.516;2023-03-09T02:31:25;8.40;99.90
8338;DHT22;4206;48.634;9.516;2023-03-09T02:33:52;8.20;99.90
8338;DHT22;4206;48.634;9.516;2023-03-09T02:36:18;8.20;99.90
8338;DHT22;4206;48.634;9.516;2023-03-09T02:38:45;8.20;99.90
8338;DHT22;4206;48.634;9.516;2023-03-09T02:41:12;8.10;99.90
8338;DHT22;4206;48.634;9.516;2023-03-09T02:43:44;8.00;99.90
8338;DHT22;4206;48.634;9.516;2023-03-09T02:46:11;8.00;99.90
8338;DHT22;4206;48.634;9.516;2023-03-09T02:48:38;8.00;99.90
8338;DHT22;4206;48.634;9.516;2023-03-09T02:51:05;7.90;99.90
8338;DHT22;4206;48.634;9.516;2023-03-09T02:53:33;8.00;99.90
8338;DHT22;4206;48.634;9.516;2023-03-09T02:56:01;7.90;99.90
8338;DHT22;4206;48.634;9.516;2023-03-09T02:58:27;7.90;99.90
8338;DHT22;4206;48.634;9.516;2023-03-09T03:00:54;7.90;99.90
8338;DHT22;4206;48.634;9.516;2023-03-09T03:03:21;7.90;99.90
8338;DHT22;4206;48.634;9.516;2023-03-09T03:05:49;8.00;99.90
8338;DHT22;4206;48.634;9.516;2023-03-09T03:08:16;8.10;99.90
8338;DHT22;4206;48.634;9.516;2023-03-09T03:10:59;8.10;99.90
8338;DHT22;4206;48.634;9.516;2023-03-09T03:13:26;8.10;99.90
8338;DHT22;4206;48.634;9.516;2023-03-09T03:16:01;8.30;99.90
8338;DHT22;4206;48.634;9.516;2023-03-09T03:18:29;8.30;99.90
8338;DHT22;4206;48.634;9.516;2023-03-09T03:20:56;8.40;99.90
8338;DHT22;4206;48.634;9.516;2023-03-09T03:23:23;8.50;99.90
8338;DHT22;4206;48.634;9.516;2023-03-09T03:25:50;8.50;99.90
8338;DHT22;4206;48.634;9.516;2023-03-09T03:28:16;8.60;99.90
8338;DHT22;4206;48.634;9.516;2023-03-09T03:30:50;8.70;99.90
8338;DHT22;4206;48.634;9.516;2023-03-09T03:33:17;8.90;99.90
8338;DHT22;4206;48.634;9.516;2023-03-09T03:35:44;9.00;99.90
8338;DHT22;4206;48.634;9.516;2023-03-09T03:38:12;9.00;99.90
8338;DHT22;4206;48.634;9.516;2023-03-09T03:40:38;9.20;99.90
8338;DHT22;4206;48.634;9.516;2023-03-09T03:43:05;9.20;99.90
8338;DHT22;4206;48.634;9.516;2023-03-09T03:45:32;9.30;99.90
8338;DHT22;4206;48.634;9.516;2023-03-09T03:47:59;9.20;99.90
8338;DHT22;4206;48.634;9.516;2023-03-09T03:50:26;9.20;99.90
8338;DHT22;4206;48.634;9.516;2023-03-09T03:52:53;9.20;99.90
8338;DHT22;4206;48.634;9.516;2023-03-09T03:55:20;9.20;99.90
8338;DHT22;4206;48.634;9.516;2023-03-09T03:57:47;9.10;99.90
8338;DHT22;4206;48.634;9.516;2023-03-09T05:00:50;8.70;99.90
8338;DHT22;4206;48.634;9.516;2023-03-09T05:03:17;8.70;99.90
8338;DHT22;4206;48.634;9.516;2023-03-09T05:05:44;8.70;99.90
8338;DHT22;4206;48.634;9.516;2023-03-09T05:08:11;8.60;99.90
8338;DHT22;4206;48.634;9.516;2023-03-09T05:10:38;8.70;99.90
8338;DHT22;4206;48.634;9.516;2023-03-09T05:13:05;8.70;99.90
8338;DHT22;4206;48.634;9.516;2023-03-09T05:15:31;8.70;99.90
8338;DHT22;4206;48.634;9.516;2023-03-09T05:17:58;8.60;99.90
8338;DHT22;4206;48.634;9.516;2023-03-09T05:20:25;8.60;99.90
8338;DHT22;4206;48.634;9.516;2023-03-09T05:22:53;8.50;99.90
8338;DHT22;4206;48.634;9.516;2023-03-09T05:25:21;8.60;99.90
8338;DHT22;4206;48.634;9.516;2023-03-09T05:27:49;8.50;99.90
8338;DHT22;4206;48.634;9.516;2023-03-09T05:30:17;8.50;99.90
8338;DHT22;4206;48.634;9.516;2023-03-09T05:32:46;8.50;99.90
8338;DHT22;4206;48.634;9.516;2023-03-09T05:35:13;8.50;99.90
8338;DHT22;4206;48.634;9.516;2023-03-09T05:37:40;8.50;99.90
8338;DHT22;4206;48.634;9.516;2023-03-09T05:40:08;8.40;99.90
8338;DHT22;4206;48.634;9.516;2023-03-09T05:42:35;8.40;99.90
8338;DHT22;4206;48.634;9.516;2023-03-09T05:45:03;8.40;99.90
8338;DHT22;4206;48.634;9.516;2023-03-09T05:47:32;8.30;99.90
8338;DHT22;4206;48.634;9.516;2023-03-09T05:49:58;8.30;99.90
8338;DHT22;4206;48.634;9.516;2023-03-09T05:52:25;8.30;99.90
8338;DHT22;4206;48.634;9.516;2023-03-09T05:54:52;8.20;99.90
8338;DHT22;4206;48.634;9.516;2023-03-09T05:57:19;8.20;99.90
8338;DHT22;4206;48.634;9.516;2023-03-09T05:59:47;8.20;99.90
8338;DHT22;4206;48.634;9.516;2023-03-09T06:02:14;8.20;99.90
8338;DHT22;4206;48.634;9.516;2023-03-09T06:04:41;8.20;99.90
8338;DHT22;4206;48.634;9.516;2023-03-09T06:07:08;8.20;99.90
8338;DHT22;4206;48.634;9.516;2023-03-09T06:09:35;8.20;99.90
8338;DHT22;4206;48.634;9.516;2023-03-09T06:12:02;8.20;99.90
8338;DHT22;4206;48.634;9.516;2023-03-09T06:14:29;8.20;99.90
8338;DHT22;4206;48.634;9.516;2023-03-09T06:16:56;8.20;99.90
8338;DHT22;4206;48.634;9.516;2023-03-09T06:19:24;8.20;99.90
8338;DHT22;4206;48.634;9.516;2023-03-09T06:21:51;8.20;99.90
8338;DHT22;4206;48.634;9.516;2023-03-09T06:24:18;8.30;99.90
8338;DHT22;4206;48.634;9.516;2023-03-09T06:26:45;8.30;99.90
8338;DHT22;4206;48.634;9.516;2023-03-09T06:29:12;8.30;99.90
8338;DHT22;4206;48.634;9.516;2023-03-09T06:31:39;8.40;99.90
8338;DHT22;4206;48.634;9.516;2023-03-09T06:34:06;8.50;99.90
8338;DHT22;4206;48.634;9.516;2023-03-09T06:36:33;8.50;99.90
8338;DHT22;4206;48.634;9.516;2023-03-09T06:39:01;8.60;99.90
8338;DHT22;4206;48.634;9.516;2023-03-09T06:41:28;8.60;99.90
8338;DHT22;4206;48.634;9.516;2023-03-09T06:43:59;8.80;99.90
8338;DHT22;4206;48.634;9.516;2023-03-09T06:46:26;8.90;99.90
8338;DHT22;4206;48.634;9.516;2023-03-09T06:48:54;8.90;99.90
8338;DHT22;4206;48.634;9.516;2023-03-09T06:51:21;9.00;99.90
8338;DHT22;4206;48.634;9.516;2023-03-09T06:53:48;9.10;99.90
8338;DHT22;4206;48.634;9.516;2023-03-09T06:56:15;9.20;99.90
8338;DHT22;4206;48.634;9.516;2023-03-09T06:58:42;9.30;99.90
8338;DHT22;4206;48.634;9.516;2023-03-09T07:01:10;9.40;99.90
8338;DHT22;4206;48.634;9.516;2023-03-09T07:03:39;9.50;99.90
8338;DHT22;4206;48.634;9.516;2023-03-09T07:06:07;9.50;99.90
8338;DHT22;4206;48.634;9.516;2023-03-09T07:08:34;9.60;99.90
8338;DHT22;4206;48.634;9.516;2023-03-09T07:11:01;9.60;99.90
8338;DHT22;4206;48.634;9.516;2023-03-09T07:13:28;9.60;99.90
8338;DHT22;4206;48.634;9.516;2023-03-09T07:15:56;9.60;99.90
8338;DHT22;4206;48.634;9.516;2023-03-09T07:18:23;9.70;99.90
8338;DHT22;4206;48.634;9.516;2023-03-09T07:20:50;9.70;99.90
8338;DHT22;4206;48.634;9.516;2023-03-09T07:23:17;9.60;99.90
8338;DHT22;4206;48.634;9.516;2023-03-09T07:25:44;9.80;99.90
8338;DHT22;4206;48.634;9.516;2023-03-09T07:28:11;9.80;99.90
8338;DHT22;4206;48.634;9.516;2023-03-09T07:30:38;10.20;99.90
8338;DHT22;4206;48.634;9.516;2023-03-09T07:33:05;10.10;99.90
8338;DHT22;4206;48.634;9.516;2023-03-09T07:35:32;10.10;99.90
8338;DHT22;4206;48.634;9.516;2023-03-09T07:37:59;10.40;99.90
8338;DHT22;4206;48.634;9.516;2023-03-09T07:40:26;10.70;99.90
8338;DHT22;4206;48.634;9.516;2023-03-09T07:42:53;10.90;99.90
8338;DHT22;4206;48.634;9.516;2023-03-09T07:45:21;11.30;99.90
8338;DHT22;4206;48.634;9.516;2023-03-09T07:47:49;12.00;99.90
8338;DHT22;4206;48.634;9.516;2023-03-09T07:50:17;12.00;99.90
8338;DHT22;4206;48.634;9.516;2023-03-09T07:52:44;12.30;99.90
8338;DHT22;4206;48.634;9.516;2023-03-09T07:55:12;11.90;99.90
8338;DHT22;4206;48.634;9.516;2023-03-09T07:57:40;11.70;99.90
8338;DHT22;4206;48.634;9.516;2023-03-09T08:00:11;11.70;99.90
8338;DHT22;4206;48.634;9.516;2023-03-09T08:02:40;12.10;99.90
8338;DHT22;4206;48.634;9.516;2023-03-09T08:05:12;12.30;99.90
8338;DHT22;4206;48.634;9.516;2023-03-09T08:07:39;12.50;99.90
8338;DHT22;4206;48.634;9.516;2023-03-09T08:10:09;12.00;99.90
8338;DHT22;4206;48.634;9.516;2023-03-09T08:12:36;11.80;99.90
8338;DHT22;4206;48.634;9.516;2023-03-09T08:15:03;11.60;99.90
8338;DHT22;4206;48.634;9.516;2023-03-09T08:17:31;11.50;99.90
8338;DHT22;4206;48.634;9.516;2023-03-09T08:20:00;11.60;99.90
8338;DHT22;4206;48.634;9.516;2023-03-09T08:22:27;11.70;99.90
8338;DHT22;4206;48.634;9.516;2023-03-09T08:24:54;11.50;99.90
8338;DHT22;4206;48.634;9.516;2023-03-09T08:27:21;11.50;99.90
8338;DHT22;4206;48.634;9.516;2023-03-09T08:29:47;11.40;99.90
8338;DHT22;4206;48.634;9.516;2023-03-09T08:32:15;11.20;99.90
8338;DHT22;4206;48.634;9.516;2023-03-09T08:34:42;11.40;99.90
8338;DHT22;4206;48.634;9.516;2023-03-09T08:37:08;11.40;99.90
8338;DHT22;4206;48.634;9.516;2023-03-09T08:39:35;11.40;99.90
8338;DHT22;4206;48.634;9.516;2023-03-09T08:42:03;11.40;99.90
8338;DHT22;4206;48.634;9.516;2023-03-09T08:44:30;11.40;99.90
8338;DHT22;4206;48.634;9.516;2023-03-09T08:46:57;11.30;99.90
8338;DHT22;4206;48.634;9.516;2023-03-09T08:49:24;11.40;99.90
8338;DHT22;4206;48.634;9.516;2023-03-09T08:51:50;11.50;99.90
8338;DHT22;4206;48.634;9.516;2023-03-09T08:54:17;11.50;99.90
8338;DHT22;4206;48.634;9.516;2023-03-09T08:56:45;11.70;99.90
8338;DHT22;4206;48.634;9.516;2023-03-09T08:59:11;12.00;99.90
8338;DHT22;4206;48.634;9.516;2023-03-09T09:01:38;12.00;99.90
8338;DHT22;4206;48.634;9.516;2023-03-09T09:04:06;12.00;99.90
8338;DHT22;4206;48.634;9.516;2023-03-09T09:06:33;11.90;99.90
8338;DHT22;4206;48.634;9.516;2023-03-09T09:09:00;11.80;99.90
8338;DHT22;4206;48.634;9.516;2023-03-09T09:11:27;12.00;99.90
8338;DHT22;4206;48.634;9.516;2023-03-09T09:13:54;12.10;99.90
8338;DHT22;4206;48.634;9.516;2023-03-09T09:16:21;12.50;99.90
8338;DHT22;4206;48.634;9.516;2023-03-09T09:18:49;12.50;99.90
8338;DHT22;4206;48.634;9.516;2023-03-09T09:21:16;12.40;99.90
8338;DHT22;4206;48.634;9.516;2023-03-09T09:23:45;12.50;99.90
8338;DHT22;4206;48.634;9.516;2023-03-09T09:26:13;12.40;99.90
8338;DHT22;4206;48.634;9.516;2023-03-09T09:28:43;12.40;99.90
8338;DHT22;4206;48.634;9.516;2023-03-09T09:31:14;12.60;99.90
8338;DHT22;4206;48.634;9.516;2023-03-09T09:33:43;12.60;99.90
8338;DHT22;4206;48.634;9.516;2023-03-09T09:36:13;12.40;99.90
8338;DHT22;4206;48.634;9.516;2023-03-09T09:38:41;12.60;99.90
8338;DHT22;4206;48.634;9.516;2023-03-09T09:41:26;12.90;99.90
8338;DHT22;4206;48.634;9.516;2023-03-09T09:43:56;13.20;99.90
8338;DHT22;4206;48.634;9.516;2023-03-09T09:46:26;13.40;99.90
8338;DHT22;4206;48.634;9.516;2023-03-09T09:48:55;14.30;99.90
8338;DHT22;4206;48.634;9.516;2023-03-09T09:51:32;14.70;99.90
8338;DHT22;4206;48.634;9.516;2023-03-09T09:56:45;14.50;99.90
8338;DHT22;4206;48.634;9.516;2023-03-09T09:59:19;15.00;99.90
8338;DHT22;4206;48.634;9.516;2023-03-09T10:02:09;14.50;99.90
8338;DHT22;4206;48.634;9.516;2023-03-09T10:04:48;13.90;99.90
8338;DHT22;4206;48.634;9.516;2023-03-09T10:07:21;13.40;99.90
8338;DHT22;4206;48.634;9.516;2023-03-09T10:09:56;13.30;99.90
8338;DHT22;4206;48.634;9.516;2023-03-09T10:12:26;13.20;99.90
8338;DHT22;4206;48.634;9.516;2023-03-09T10:15:13;13.20;99.90
8338;DHT22;4206;48.634;9.516;2023-03-09T10:20:33;13.50;99.90
8338;DHT22;4206;48.634;9.516;2023-03-09T10:23:15;14.00;99.90
8338;DHT22;4206;48.634;9.516;2023-03-09T10:25:47;14.20;99.90
8338;DHT22;4206;48.634;9.516;2023-03-09T10:28:19;14.00;99.90
8338;DHT22;4206;48.634;9.516;2023-03-09T10:38:52;14.40;99.90
8338;DHT22;4206;48.634;9.516;2023-03-09T10:41:21;14.60;99.90
8338;DHT22;4206;48.634;9.516;2023-03-09T10:43:49;14.90;99.90
8338;DHT22;4206;48.634;9.516;2023-03-09T10:46:18;15.40;99.90
8338;DHT22;4206;48.634;9.516;2023-03-09T10:48:48;16.50;99.90
8338;DHT22;4206;48.634;9.516;2023-03-09T10:51:32;16.60;99.90
8338;DHT22;4206;48.634;9.516;2023-03-09T10:56:45;16.50;99.90
8338;DHT22;4206;48.634;9.516;2023-03-09T10:59:15;17.00;99.90
8338;DHT22;4206;48.634;9.516;2023-03-09T11:01:47;17.70;99.90
8338;DHT22;4206;48.634;9.516;2023-03-09T11:06:51;17.70;99.90
8338;DHT22;4206;48.634;9.516;2023-03-09T11:09:23;16.60;99.90
8338;DHT22;4206;48.634;9.516;2023-03-09T11:11:52;17.10;99.90
8338;DHT22;4206;48.634;9.516;2023-03-09T11:14:22;17.50;99.90
8338;DHT22;4206;48.634;9.516;2023-03-09T11:16:52;18.10;99.90
8338;DHT22;4206;48.634;9.516;2023-03-09T11:19:20;17.70;99.90
8338;DHT22;4206;48.634;9.516;2023-03-09T11:22:05;17.70;99.90
8338;DHT22;4206;48.634;9.516;2023-03-09T11:24:44;18.00;99.90
8338;DHT22;4206;48.634;9.516;2023-03-09T11:27:18;17.60;99.90
8338;DHT22;4206;48.634;9.516;2023-03-09T11:29:54;17.50;99.90
8338;DHT22;4206;48.634;9.516;2023-03-09T11:32:23;17.80;99.90
8338;DHT22;4206;48.634;9.516;2023-03-09T11:34:51;17.60;99.90
8338;DHT22;4206;48.634;9.516;2023-03-09T11:42:48;17.60;99.90
8338;DHT22;4206;48.634;9.516;2023-03-09T11:45:20;17.90;99.90
8338;DHT22;4206;48.634;9.516;2023-03-09T11:50:24;16.50;99.90
8338;DHT22;4206;48.634;9.516;2023-03-09T11:52:59;16.80;99.90
8338;DHT22;4206;48.634;9.516;2023-03-09T11:55:34;16.60;99.90
8338;DHT22;4206;48.634;9.516;2023-03-09T11:58:08;16.90;99.90
8338;DHT22;4206;48.634;9.516;2023-03-09T12:00:39;17.10;99.90
8338;DHT22;4206;48.634;9.516;2023-03-09T12:03:14;16.80;99.90
8338;DHT22;4206;48.634;9.516;2023-03-09T12:05:48;16.50;99.90
8338;DHT22;4206;48.634;9.516;2023-03-09T12:08:25;16.40;99.90
8338;DHT22;4206;48.634;9.516;2023-03-09T12:13:32;16.40;99.90
8338;DHT22;4206;48.634;9.516;2023-03-09T12:16:15;16.20;99.90
8338;DHT22;4206;48.634;9.516;2023-03-09T12:19:00;16.30;99.90
8338;DHT22;4206;48.634;9.516;2023-03-09T12:21:33;16.60;99.90
8338;DHT22;4206;48.634;9.516;2023-03-09T12:29:40;16.50;99.90
8338;DHT22;4206;48.634;9.516;2023-03-09T12:34:55;16.50;99.90
8338;DHT22;4206;48.634;9.516;2023-03-09T12:37:51;17.20;99.90
8338;DHT22;4206;48.634;9.516;2023-03-09T12:40:30;17.50;99.90
8338;DHT22;4206;48.634;9.516;2023-03-09T12:45:41;16.60;99.90
8338;DHT22;4206;48.634;9.516;2023-03-09T12:53:20;15.30;99.90
8338;DHT22;4206;48.634;9.516;2023-03-09T12:55:51;15.70;99.90
8338;DHT22;4206;48.634;9.516;2023-03-09T13:01:08;16.10;99.90
8338;DHT22;4206;48.634;9.516;2023-03-09T13:09:18;15.70;99.90
8338;DHT22;4206;48.634;9.516;2023-03-09T13:11:50;15.20;99.90
8338;DHT22;4206;48.634;9.516;2023-03-09T13:17:06;15.00;99.90
8338;DHT22;4206;48.634;9.516;2023-03-09T13:19:51;14.80;99.90
8338;DHT22;4206;48.634;9.516;2023-03-09T13:22:22;14.70;99.90
8338;DHT22;4206;48.634;9.516;2023-03-09T13:24:56;14.60;99.90
8338;DHT22;4206;48.634;9.516;2023-03-09T13:27:33;14.70;99.90
8338;DHT22;4206;48.634;9.516;2023-03-09T13:30:16;14.60;99.90
8338;DHT22;4206;48.634;9.516;2023-03-09T13:35:38;14.20;99.90
8338;DHT22;4206;48.634;9.516;2023-03-09T13:40:59;14.30;99.90
8338;DHT22;4206;48.634;9.516;2023-03-09T13:43:30;14.30;99.90
8338;DHT22;4206;48.634;9.516;2023-03-09T13:46:02;14.20;99.90
8338;DHT22;4206;48.634;9.516;2023-03-09T13:48:32;14.20;99.90
8338;DHT22;4206;48.634;9.516;2023-03-09T13:51:00;14.00;99.90
8338;DHT22;4206;48.634;9.516;2023-03-09T13:53:28;14.00;99.90
8338;DHT22;4206;48.634;9.516;2023-03-09T13:58:24;14.20;99.90
8338;DHT22;4206;48.634;9.516;2023-03-09T14:00:58;14.20;99.90
8338;DHT22;4206;48.634;9.516;2023-03-09T14:03:29;14.10;99.90
8338;DHT22;4206;48.634;9.516;2023-03-09T14:06:06;14.30;99.90
8338;DHT22;4206;48.634;9.516;2023-03-09T14:08:55;14.30;99.90
8338;DHT22;4206;48.634;9.516;2023-03-09T14:11:25;14.20;99.90
8338;DHT22;4206;48.634;9.516;2023-03-09T14:13:56;14.40;99.90
8338;DHT22;4206;48.634;9.516;2023-03-09T14:16:27;14.40;99.90
8338;DHT22;4206;48.634;9.516;2023-03-09T14:18:56;14.50;99.90
8338;DHT22;4206;48.634;9.516;2023-03-09T14:21:26;14.70;99.90
8338;DHT22;4206;48.634;9.516;2023-03-09T14:24:08;14.80;99.90
8338;DHT22;4206;48.634;9.516;2023-03-09T14:26:36;14.70;99.90
8338;DHT22;4206;48.634;9.516;2023-03-09T14:31:48;14.70;99.90
8338;DHT22;4206;48.634;9.516;2023-03-09T14:36:51;14.90;99.90
8338;DHT22;4206;48.634;9.516;2023-03-09T14:44:42;14.30;99.90
8338;DHT22;4206;48.634;9.516;2023-03-09T14:49:40;14.30;99.90
8338;DHT22;4206;48.634;9.516;2023-03-09T14:52:11;14.70;99.90
8338;DHT22;4206;48.634;9.516;2023-03-09T14:54:38;15.40;99.90
8338;DHT22;4206;48.634;9.516;2023-03-09T14:57:10;15.60;99.90
8338;DHT22;4206;48.634;9.516;2023-03-09T14:59:37;15.80;99.90
8338;DHT22;4206;48.634;9.516;2023-03-09T15:02:06;16.10;99.90
8338;DHT22;4206;48.634;9.516;2023-03-09T15:04:35;16.30;99.90
8338;DHT22;4206;48.634;9.516;2023-03-09T15:07:03;16.10;99.90
8338;DHT22;4206;48.634;9.516;2023-03-09T15:09:31;15.90;99.90
8338;DHT22;4206;48.634;9.516;2023-03-09T15:12:02;15.40;99.90
8338;DHT22;4206;48.634;9.516;2023-03-09T15:14:33;15.00;99.90
8338;DHT22;4206;48.634;9.516;2023-03-09T15:17:03;14.90;99.90
8338;DHT22;4206;48.634;9.516;2023-03-09T15:19:31;14.60;99.90
8338;DHT22;4206;48.634;9.516;2023-03-09T15:21:58;14.30;99.90
8338;DHT22;4206;48.634;9.516;2023-03-09T15:24:28;14.30;99.90
8338;DHT22;4206;48.634;9.516;2023-03-09T15:26:56;14.10;99.90
8338;DHT22;4206;48.634;9.516;2023-03-09T15:29:23;14.10;99.90
8338;DHT22;4206;48.634;9.516;2023-03-09T15:31:50;14.10;99.90
8338;DHT22;4206;48.634;9.516;2023-03-09T15:34:18;14.20;99.90
8338;DHT22;4206;48.634;9.516;2023-03-09T15:36:45;14.40;99.90
8338;DHT22;4206;48.634;9.516;2023-03-09T15:39:11;14.40;99.90
8338;DHT22;4206;48.634;9.516;2023-03-09T15:41:38;14.10;99.90
8338;DHT22;4206;48.634;9.516;2023-03-09T15:44:05;14.20;99.90
8338;DHT22;4206;48.634;9.516;2023-03-09T15:46:32;14.20;99.90
8338;DHT22;4206;48.634;9.516;2023-03-09T15:48:59;14.40;99.90
8338;DHT22;4206;48.634;9.516;2023-03-09T15:51:31;14.30;99.90
8338;DHT22;4206;48.634;9.516;2023-03-09T15:53:58;14.10;99.90
8338;DHT22;4206;48.634;9.516;2023-03-09T15:56:24;14.10;99.90
8338;DHT22;4206;48.634;9.516;2023-03-09T15:58:51;14.00;99.90
8338;DHT22;4206;48.634;9.516;2023-03-09T16:01:19;14.00;99.90
8338;DHT22;4206;48.634;9.516;2023-03-09T16:03:50;14.00;99.90
8338;DHT22;4206;48.634;9.516;2023-03-09T16:06:18;13.90;99.90
8338;DHT22;4206;48.634;9.516;2023-03-09T16:08:46;13.90;99.90
8338;DHT22;4206;48.634;9.516;2023-03-09T16:11:15;13.80;99.90
8338;DHT22;4206;48.634;9.516;2023-03-09T16:13:42;13.80;99.90
8338;DHT22;4206;48.634;9.516;2023-03-09T16:16:10;13.80;99.90
8338;DHT22;4206;48.634;9.516;2023-03-09T16:18:38;13.70;99.90
8338;DHT22;4206;48.634;9.516;2023-03-09T16:21:05;13.70;99.90
8338;DHT22;4206;48.634;9.516;2023-03-09T16:23:32;13.60;99.90
8338;DHT22;4206;48.634;9.516;2023-03-09T16:25:59;13.50;99.90
8338;DHT22;4206;48.634;9.516;2023-03-09T16:28:27;13.50;99.90
8338;DHT22;4206;48.634;9.516;2023-03-09T16:30:54;13.40;99.90
8338;DHT22;4206;48.634;9.516;2023-03-09T16:33:21;13.30;99.90
8338;DHT22;4206;48.634;9.516;2023-03-09T16:36:04;13.10;99.90
8338;DHT22;4206;48.634;9.516;2023-03-09T16:38:31;13.20;99.90
8338;DHT22;4206;48.634;9.516;2023-03-09T16:40:57;13.00;99.90
8338;DHT22;4206;48.634;9.516;2023-03-09T16:43:27;13.00;99.90
8338;DHT22;4206;48.634;9.516;2023-03-09T16:45:56;12.90;99.90
8338;DHT22;4206;48.634;9.516;2023-03-09T16:48:24;12.80;99.90
8338;DHT22;4206;48.634;9.516;2023-03-09T16:50:54;12.70;99.90
8338;DHT22;4206;48.634;9.516;2023-03-09T16:53:21;12.60;99.90
8338;DHT22;4206;48.634;9.516;2023-03-09T16:58:23;12.40;99.90
8338;DHT22;4206;48.634;9.516;2023-03-09T17:00:50;12.30;99.90
8338;DHT22;4206;48.634;9.516;2023-03-09T17:03:18;12.20;99.90
8338;DHT22;4206;48.634;9.516;2023-03-09T17:05:45;12.10;99.90
8338;DHT22;4206;48.634;9.516;2023-03-09T17:08:15;12.00;99.90
8338;DHT22;4206;48.634;9.516;2023-03-09T17:10:43;11.90;99.90
8338;DHT22;4206;48.634;9.516;2023-03-09T17:13:11;11.80;99.90
8338;DHT22;4206;48.634;9.516;2023-03-09T17:15:38;11.70;99.90
8338;DHT22;4206;48.634;9.516;2023-03-09T17:18:05;11.60;99.90
8338;DHT22;4206;48.634;9.516;2023-03-09T17:20:33;11.50;99.90
8338;DHT22;4206;48.634;9.516;2023-03-09T17:23:00;11.50;99.90
8338;DHT22;4206;48.634;9.516;2023-03-09T17:25:27;11.40;99.90
8338;DHT22;4206;48.634;9.516;2023-03-09T17:27:54;11.30;99.90
8338;DHT22;4206;48.634;9.516;2023-03-09T17:30:22;11.10;99.90
8338;DHT22;4206;48.634;9.516;2023-03-09T17:33:02;11.00;99.90
8338;DHT22;4206;48.634;9.516;2023-03-09T17:35:29;10.80;99.90
8338;DHT22;4206;48.634;9.516;2023-03-09T17:37:56;10.80;99.90
8338;DHT22;4206;48.634;9.516;2023-03-09T17:40:23;10.70;99.90
8338;DHT22;4206;48.634;9.516;2023-03-09T17:42:50;10.60;99.90
8338;DHT22;4206;48.634;9.516;2023-03-09T17:45:17;10.50;99.90
8338;DHT22;4206;48.634;9.516;2023-03-09T17:47:45;10.50;99.90
8338;DHT22;4206;48.634;9.516;2023-03-09T17:50:11;10.40;99.90
8338;DHT22;4206;48.634;9.516;2023-03-09T17:52:38;10.30;99.90
8338;DHT22;4206;48.634;9.516;2023-03-09T17:55:05;10.30;99.90
8338;DHT22;4206;48.634;9.516;2023-03-09T17:57:32;10.20;99.90
8338;DHT22;4206;48.634;9.516;2023-03-09T17:59:59;10.10;99.90
8338;DHT22;4206;48.634;9.516;2023-03-09T18:02:26;10.00;99.90
8338;DHT22;4206;48.634;9.516;2023-03-09T18:04:53;9.90;99.90
8338;DHT22;4206;48.634;9.516;2023-03-09T18:07:21;9.50;99.90
8338;DHT22;4206;48.634;9.516;2023-03-09T18:09:50;9.80;99.90
8338;DHT22;4206;48.634;9.516;2023-03-09T18:12:17;9.70;99.90
8338;DHT22;4206;48.634;9.516;2023-03-09T18:14:45;9.60;99.90
8338;DHT22;4206;48.634;9.516;2023-03-09T18:17:12;9.50;99.90
8338;DHT22;4206;48.634;9.516;2023-03-09T18:19:39;9.50;99.90
8338;DHT22;4206;48.634;9.516;2023-03-09T18:22:06;9.50;99.90
8338;DHT22;4206;48.634;9.516;2023-03-09T18:24:33;9.50;99.90
8338;DHT22;4206;48.634;9.516;2023-03-09T18:27:00;9.30;99.90
8338;DHT22;4206;48.634;9.516;2023-03-09T18:29:27;9.30;99.90
8338;DHT22;4206;48.634;9.516;2023-03-09T18:31:54;9.20;99.90
8338;DHT22;4206;48.634;9.516;2023-03-09T18:34:21;9.10;99.90
8338;DHT22;4206;48.634;9.516;2023-03-09T18:36:47;9.00;99.90
8338;DHT22;4206;48.634;9.516;2023-03-09T18:39:14;9.00;99.90
8338;DHT22;4206;48.634;9.516;2023-03-09T18:41:41;8.80;99.90
8338;DHT22;4206;48.634;9.516;2023-03-09T18:44:08;8.70;99.90
8338;DHT22;4206;48.634;9.516;2023-03-09T18:46:35;8.60;99.90
8338;DHT22;4206;48.634;9.516;2023-03-09T18:49:02;8.60;99.90